createdAt,value
2023-03-08T00:00:38.802Z,73.18
2023-03-08T00:01:40.859Z,73.32
2023-03-08T00:02:45.562Z,73.24
2023-03-08T00:03:47.776Z,72.61
2023-03-08T00:04:52.495Z,72.90
2023-03-08T00:05:54.796Z,74.21
2023-03-08T00:06:59.376Z,73.87
2023-03-08T00:08:01.361Z,74.54
2023-03-08T00:09:06.245Z,73.74
2023-03-08T00:10:10.378Z,74.31
2023-03-08T00:11:18.369Z,75.00
2023-03-08T00:12:20.470Z,74.47
2023-03-08T00:13:25.118Z,73.92
2023-03-08T00:14:29.797Z,74.29
2023-03-08T00:15:31.836Z,73.72
2023-03-08T00:16:36.453Z,73.38
2023-03-08T00:17:39.172Z,73.38
2023-03-08T00:18:44.331Z,73.32
2023-03-08T00:19:46.591Z,72.91
2023-03-08T00:20:51.213Z,73.41
2023-03-08T00:21:53.616Z,74.06
2023-03-08T00:22:58.241Z,73.67
2023-03-08T00:24:00.293Z,73.42
2023-03-08T00:25:04.975Z,73.24
2023-03-08T00:26:07.441Z,72.91
2023-03-08T00:27:14.645Z,73.72
2023-03-08T00:28:16.636Z,73.93
2023-03-08T00:29:21.321Z,73.28
2023-03-08T00:30:23.405Z,73.75
2023-03-08T00:31:28.120Z,73.44
2023-03-08T00:32:30.517Z,73.04
2023-03-08T00:33:35.761Z,73.41
2023-03-08T00:34:37.731Z,73.63
2023-03-08T00:35:42.649Z,74.00
2023-03-08T00:36:44.900Z,74.17
2023-03-08T00:37:49.579Z,73.92
2023-03-08T00:38:52.698Z,74.31
2023-03-08T00:39:57.708Z,74.63
2023-03-08T00:41:00.009Z,74.81
2023-03-08T00:42:04.889Z,74.28
2023-03-08T00:43:09.504Z,74.02
2023-03-08T00:44:14.333Z,74.56
2023-03-08T00:45:16.536Z,75.22
2023-03-08T00:46:21.443Z,75.07
2023-03-08T00:47:23.478Z,75.57
2023-03-08T00:48:28.420Z,75.60
2023-03-08T00:49:30.740Z,76.34
2023-03-08T00:50:35.842Z,75.39
2023-03-08T00:51:40.559Z,75.96
2023-03-08T00:52:42.878Z,75.95
2023-03-08T00:53:47.792Z,76.31
2023-03-08T00:54:49.888Z,76.04
2023-03-08T00:55:56.466Z,76.56
2023-03-08T00:56:58.542Z,76.40
2023-03-08T00:58:03.256Z,76.12
2023-03-08T00:59:07.952Z,76.62
2023-03-08T01:00:15.297Z,76.88
2023-03-08T01:01:19.424Z,76.60
2023-03-08T01:02:24.092Z,75.87
2023-03-08T01:03:26.532Z,75.56
2023-03-08T01:04:31.153Z,75.59
2023-03-08T01:05:33.219Z,75.56
2023-03-08T01:06:37.812Z,76.40
2023-03-08T01:07:40.141Z,76.14
2023-03-08T01:08:45.290Z,76.64
2023-03-08T01:09:47.486Z,76.46
2023-03-08T01:10:53.585Z,77.08
2023-03-08T01:11:55.573Z,77.37
2023-03-08T01:13:00.173Z,77.91
2023-03-08T01:14:02.321Z,78.51
2023-03-08T01:15:10.826Z,78.66
2023-03-08T01:16:17.715Z,79.14
2023-03-08T01:17:22.737Z,78.51
2023-03-08T01:18:25.313Z,79.70
2023-03-08T01:19:29.923Z,80.48
2023-03-08T01:20:32.493Z,80.27
2023-03-08T01:21:37.190Z,80.09
2023-03-08T01:22:39.261Z,80.02
2023-03-08T01:23:43.926Z,80.14
2023-03-08T01:26:40.645Z,80.89
2023-03-08T01:27:42.713Z,82.08
2023-03-08T01:28:48.130Z,82.22
2023-03-08T01:29:50.206Z,82.06
2023-03-08T01:30:57.611Z,82.12
2023-03-08T01:31:59.705Z,82.71
2023-03-08T01:33:04.382Z,81.88
2023-03-08T01:34:06.468Z,82.27
2023-03-08T01:35:12.434Z,82.32
2023-03-08T01:36:16.096Z,82.37
2023-03-08T01:37:20.917Z,81.85
2023-03-08T01:38:23.772Z,81.75
2023-03-08T01:39:28.507Z,82.17
2023-03-08T01:40:30.648Z,82.02
2023-03-08T01:41:35.423Z,81.39
2023-03-08T01:42:39.146Z,81.68
2023-03-08T01:43:43.861Z,82.30
2023-03-08T01:44:51.018Z,82.02
2023-03-08T01:46:20.142Z,82.17
2023-03-08T01:47:24.770Z,81.41
2023-03-08T01:48:35.536Z,81.33
2023-03-08T01:49:37.839Z,82.22
2023-03-08T01:50:43.959Z,81.99
2023-03-08T01:51:54.662Z,82.21
2023-03-08T01:52:58.946Z,82.71
2023-03-08T01:54:07.936Z,82.85
2023-03-08T01:55:12.487Z,83.69
2023-03-08T01:56:21.658Z,82.81
2023-03-08T01:57:27.045Z,83.21
2023-03-08T01:58:32.142Z,83.17
2023-03-08T01:59:38.257Z,83.79
2023-03-08T02:00:40.331Z,83.23
2023-03-08T02:01:48.343Z,82.56
2023-03-08T02:02:53.452Z,82.36
2023-03-08T02:03:58.171Z,83.55
2023-03-08T02:05:00.238Z,82.79
2023-03-08T02:06:05.999Z,83.64
2023-03-08T02:07:08.063Z,83.71
2023-03-08T02:08:13.272Z,82.86
2023-03-08T02:09:15.431Z,82.69
2023-03-08T02:10:21.862Z,83.56
2023-03-08T02:11:25.747Z,84.21
2023-03-08T02:12:30.613Z,84.52
2023-03-08T02:13:32.839Z,85.59
2023-03-08T02:14:37.851Z,85.91
2023-03-08T02:15:40.018Z,87.08
2023-03-08T02:16:47.326Z,86.36
2023-03-08T02:17:49.450Z,85.29
2023-03-08T02:18:59.967Z,85.81
2023-03-08T02:20:08.450Z,86.19
2023-03-08T02:21:13.096Z,86.44
2023-03-08T02:22:16.841Z,86.32
2023-03-08T02:23:25.988Z,86.72
2023-03-08T02:24:27.993Z,86.58
2023-03-08T02:25:33.007Z,86.49
2023-03-08T02:26:37.530Z,86.55
2023-03-08T02:27:42.215Z,87.66
2023-03-08T02:28:44.992Z,87.58
2023-03-08T02:29:50.055Z,87.91
2023-03-08T02:30:52.387Z,87.93
2023-03-08T02:31:57.029Z,87.72
2023-03-08T02:32:59.054Z,88.08
2023-03-08T02:34:03.735Z,88.95
2023-03-08T02:35:06.570Z,89.08
2023-03-08T02:36:12.373Z,88.53
2023-03-08T02:37:14.476Z,89.86
2023-03-08T02:38:21.122Z,89.03
2023-03-08T02:39:25.734Z,89.01
2023-03-08T02:40:30.480Z,88.85
2023-03-08T02:41:32.539Z,89.68
2023-03-08T02:42:37.131Z,89.22
2023-03-08T02:43:39.311Z,88.83
2023-03-08T02:44:44.022Z,89.05
2023-03-08T02:45:46.647Z,89.46
2023-03-08T02:46:51.457Z,89.70
2023-03-08T02:47:53.610Z,89.92
2023-03-08T02:48:58.303Z,90.89
2023-03-08T02:50:00.400Z,91.59
2023-03-08T02:51:05.089Z,91.92
2023-03-08T02:52:07.547Z,91.45
2023-03-08T02:53:12.618Z,92.43
2023-03-08T02:54:16.831Z,92.28
2023-03-08T02:55:24.370Z,91.71
2023-03-08T02:56:26.385Z,92.08
2023-03-08T02:57:31.028Z,90.07
2023-03-08T02:58:33.092Z,89.84
2023-03-08T02:59:37.707Z,90.84
2023-03-08T03:00:39.822Z,91.02
2023-03-08T03:01:44.441Z,91.09
2023-03-08T03:02:46.649Z,91.28
2023-03-08T03:03:51.253Z,90.39
2023-03-08T03:04:53.328Z,90.28
2023-03-08T03:05:58.110Z,89.78
2023-03-08T03:07:00.942Z,89.00
2023-03-08T03:08:05.540Z,89.31
2023-03-08T03:09:08.781Z,90.31
2023-03-08T03:10:16.511Z,90.40
2023-03-08T03:11:22.668Z,90.16
2023-03-08T03:12:27.319Z,89.94
2023-03-08T03:13:29.421Z,90.50
2023-03-08T03:14:34.181Z,90.63
2023-03-08T03:15:38.513Z,89.18
2023-03-08T03:16:43.431Z,88.93
2023-03-08T03:17:45.560Z,89.19
2023-03-08T03:18:50.185Z,88.41
2023-03-08T03:19:52.200Z,88.95
2023-03-08T03:20:56.777Z,89.19
2023-03-08T03:21:58.793Z,88.39
2023-03-08T03:23:03.434Z,88.50
2023-03-08T03:24:05.990Z,89.03
2023-03-08T03:25:11.629Z,88.75
2023-03-08T03:26:15.701Z,88.84
2023-03-08T03:27:23.271Z,88.04
2023-03-08T03:28:27.851Z,88.19
2023-03-08T03:29:29.902Z,89.27
2023-03-08T03:30:34.564Z,89.82
2023-03-08T03:31:36.729Z,89.39
2023-03-08T03:32:41.369Z,88.33
2023-03-08T03:33:44.104Z,87.81
2023-03-08T03:34:50.232Z,88.09
2023-03-08T03:35:52.383Z,86.93
2023-03-08T03:36:57.005Z,87.46
2023-03-08T03:37:59.063Z,87.75
2023-03-08T03:39:03.762Z,86.81
2023-03-08T03:40:07.192Z,87.66
2023-03-08T03:41:13.989Z,87.75
2023-03-08T03:42:23.041Z,88.71
2023-03-08T03:43:25.025Z,88.38
2023-03-08T03:44:31.969Z,87.82
2023-03-08T03:45:33.994Z,87.42
2023-03-08T03:46:38.684Z,88.22
2023-03-08T03:47:40.700Z,88.08
2023-03-08T03:48:45.762Z,87.27
2023-03-08T03:49:47.826Z,86.32
2023-03-08T03:50:57.628Z,86.49
2023-03-08T03:51:59.698Z,88.23
2023-03-08T03:53:04.367Z,88.63
2023-03-08T03:54:07.462Z,87.85
2023-03-08T03:55:12.929Z,87.63
2023-03-08T03:56:17.267Z,88.39
2023-03-08T03:57:25.480Z,88.36
2023-03-08T03:58:27.523Z,89.16
2023-03-08T03:59:34.120Z,87.98
2023-03-08T04:00:36.149Z,89.51
2023-03-08T04:01:41.116Z,88.95
2023-03-08T04:02:43.272Z,90.01
2023-03-08T04:03:48.036Z,90.80
2023-03-08T04:04:50.760Z,90.86
2023-03-08T04:05:55.951Z,90.82
2023-03-08T04:06:58.079Z,91.28
2023-03-08T04:08:02.699Z,88.86
2023-03-08T04:09:06.707Z,89.85
2023-03-08T04:10:11.797Z,89.75
2023-03-08T04:11:15.725Z,89.96
2023-03-08T04:12:20.394Z,89.40
2023-03-08T04:13:25.089Z,90.14
2023-03-08T04:14:29.727Z,89.99
2023-03-08T04:15:31.895Z,91.45
2023-03-08T04:16:37.834Z,92.03
2023-03-08T04:17:40.093Z,92.31
2023-03-08T04:18:45.604Z,91.88
2023-03-08T04:19:49.277Z,92.32
2023-03-08T04:20:53.927Z,92.99
2023-03-08T04:21:55.959Z,92.81
2023-03-08T04:23:00.662Z,93.29
2023-03-08T04:24:03.029Z,94.10
2023-03-08T04:25:08.743Z,94.26
2023-03-08T04:26:10.925Z,93.21
2023-03-08T04:27:15.642Z,93.12
2023-03-08T04:28:17.642Z,95.17
2023-03-08T04:29:24.982Z,95.75
2023-03-08T04:30:27.033Z,96.24
2023-03-08T04:31:32.789Z,96.64
2023-03-08T04:32:35.370Z,96.40
2023-03-08T04:33:40.058Z,96.19
2023-03-08T04:34:43.125Z,97.79
2023-03-08T04:35:47.889Z,98.06
2023-03-08T04:36:52.585Z,99.25
2023-03-08T04:37:54.659Z,99.67
2023-03-08T04:38:59.533Z,98.74
2023-03-08T04:40:01.607Z,99.31
2023-03-08T04:41:05.568Z,99.79
2023-03-08T04:42:10.763Z,99.98
2023-03-08T04:43:13.093Z,100.00
2023-03-08T04:44:17.750Z,99.99
2023-03-08T04:45:22.529Z,99.52
2023-03-08T04:46:29.828Z,99.26
2023-03-08T04:47:31.838Z,99.00
2023-03-08T04:48:36.944Z,97.29
2023-03-08T04:49:38.990Z,96.88
2023-03-08T04:50:43.909Z,95.17
2023-03-08T04:51:48.733Z,95.37
2023-03-08T04:52:50.810Z,94.96
2023-03-08T04:53:55.466Z,94.09
2023-03-08T04:54:57.717Z,94.17
2023-03-08T04:56:02.932Z,93.60
2023-03-08T04:57:05.173Z,94.00
2023-03-08T04:58:09.816Z,92.63
2023-03-08T04:59:11.868Z,91.24
2023-03-08T05:00:17.438Z,92.30
2023-03-08T05:01:25.912Z,92.33
2023-03-08T05:02:28.111Z,91.20
2023-03-08T05:03:32.785Z,92.19
2023-03-08T05:04:35.042Z,91.75
2023-03-08T05:05:39.879Z,91.20
2023-03-08T05:06:41.885Z,91.96
2023-03-08T05:07:46.546Z,92.94
2023-03-08T05:08:51.177Z,93.10
2023-03-08T05:09:53.150Z,92.69
2023-03-08T05:11:01.172Z,93.47
2023-03-08T05:12:03.760Z,93.22
2023-03-08T05:13:08.432Z,93.77
2023-03-08T05:14:10.562Z,93.32
2023-03-08T05:15:15.238Z,93.90
2023-03-08T05:16:17.466Z,94.26
2023-03-08T05:17:24.941Z,93.69
2023-03-08T05:18:27.093Z,94.50
2023-03-08T05:19:31.831Z,94.25
2023-03-08T05:20:33.869Z,93.86
2023-03-08T05:21:38.523Z,94.23
2023-03-08T05:22:56.648Z,94.41
2023-03-08T05:24:03.487Z,93.21
2023-03-08T05:25:06.377Z,94.07
2023-03-08T05:26:13.540Z,94.27
2023-03-08T05:27:15.621Z,94.51
2023-03-08T05:28:20.265Z,94.22
2023-03-08T05:29:23.209Z,93.72
2023-03-08T05:30:27.950Z,94.03
2023-03-08T05:31:30.134Z,94.37
2023-03-08T05:32:37.482Z,94.03
2023-03-08T05:33:40.214Z,92.46
2023-03-08T05:34:44.953Z,92.86
2023-03-08T05:35:54.502Z,93.10
2023-03-08T05:36:59.973Z,91.68
2023-03-08T05:38:02.094Z,91.52
2023-03-08T05:39:07.058Z,91.36
2023-03-08T05:40:10.979Z,91.41
2023-03-08T05:41:17.484Z,92.01
2023-03-08T05:42:20.539Z,92.12
2023-03-08T05:43:25.196Z,92.38
2023-03-08T05:44:27.397Z,93.03
2023-03-08T05:45:32.330Z,92.89
2023-03-08T05:46:34.539Z,92.80
2023-03-08T05:47:41.824Z,92.68
2023-03-08T05:48:44.556Z,91.97
2023-03-08T05:49:49.316Z,90.57
2023-03-08T05:50:51.389Z,91.08
2023-03-08T05:51:56.121Z,91.05
2023-03-08T05:52:58.131Z,91.75
2023-03-08T05:54:02.792Z,91.22
2023-03-08T05:55:05.856Z,91.86
2023-03-08T05:56:12.397Z,91.32
2023-03-08T05:57:14.400Z,90.91
2023-03-08T05:58:19.297Z,91.27
2023-03-08T05:59:21.486Z,92.23
2023-03-08T06:00:27.377Z,92.34
2023-03-08T06:01:29.650Z,92.43
2023-03-08T06:02:34.316Z,92.41
2023-03-08T06:03:39.090Z,92.88
2023-03-08T06:04:43.923Z,93.33
2023-03-08T06:05:45.941Z,93.80
2023-03-08T06:06:50.604Z,94.10
2023-03-08T06:07:52.589Z,94.24
2023-03-08T06:08:57.280Z,94.17
2023-03-08T06:09:59.376Z,95.19
2023-03-08T06:11:04.016Z,94.73
2023-03-08T06:12:07.010Z,94.93
2023-03-08T06:13:11.584Z,95.37
2023-03-08T06:14:13.611Z,95.55
2023-03-08T06:15:18.550Z,95.04
2023-03-08T06:16:20.679Z,93.85
2023-03-08T06:17:25.373Z,93.94
2023-03-08T06:18:28.232Z,93.69
2023-03-08T06:19:35.699Z,93.45
2023-03-08T06:20:37.817Z,94.61
2023-03-08T06:21:42.446Z,95.20
2023-03-08T06:22:44.662Z,94.47
2023-03-08T06:23:49.876Z,95.19
2023-03-08T06:24:55.045Z,95.33
2023-03-08T06:26:00.224Z,95.92
2023-03-08T06:27:02.276Z,95.29
2023-03-08T06:28:07.168Z,95.57
2023-03-08T06:29:09.225Z,94.08
2023-03-08T06:30:15.012Z,94.94
2023-03-08T06:31:18.859Z,94.90
2023-03-08T06:32:23.859Z,95.22
2023-03-08T06:33:28.672Z,95.64
2023-03-08T06:34:36.113Z,95.23
2023-03-08T06:35:40.796Z,94.94
2023-03-08T06:36:43.411Z,96.39
2023-03-08T06:37:48.159Z,96.82
2023-03-08T06:38:53.309Z,97.00
2023-03-08T06:39:56.197Z,96.57
2023-03-08T06:41:01.366Z,96.83
2023-03-08T06:42:03.439Z,96.67
2023-03-08T06:43:08.145Z,96.93
2023-03-08T06:44:13.275Z,98.78
2023-03-08T06:45:18.040Z,99.56
2023-03-08T06:46:20.390Z,98.76
2023-03-08T06:47:25.394Z,98.91
2023-03-08T06:48:27.432Z,98.71
2023-03-08T06:49:32.220Z,99.12
2023-03-08T06:50:36.979Z,98.16
2023-03-08T06:51:41.676Z,98.97
2023-03-08T06:52:43.927Z,98.38
2023-03-08T06:53:48.928Z,97.45
2023-03-08T06:54:51.077Z,98.11
2023-03-08T06:55:55.945Z,97.87
2023-03-08T06:56:57.958Z,97.15
2023-03-08T06:58:02.598Z,96.82
2023-03-08T06:59:04.622Z,97.36
2023-03-08T07:00:13.775Z,96.98
2023-03-08T07:01:18.522Z,97.15
2023-03-08T07:02:20.575Z,96.92
2023-03-08T07:03:25.835Z,95.98
2023-03-08T07:04:28.037Z,94.70
2023-03-08T07:05:32.773Z,94.64
2023-03-08T07:06:37.351Z,95.43
2023-03-08T07:07:41.963Z,97.99
2023-03-08T07:08:44.223Z,98.15
2023-03-08T07:09:48.924Z,98.48
2023-03-08T07:10:51.024Z,100.00
2023-03-08T07:11:55.777Z,100.00
2023-03-08T07:12:57.911Z,100.00
2023-03-08T07:14:02.623Z,100.00
2023-03-08T07:15:05.936Z,100.00
2023-03-08T07:16:12.574Z,100.00
2023-03-08T07:17:17.237Z,100.00
2023-03-08T07:18:21.505Z,100.00
2023-03-08T07:19:26.676Z,100.00
2023-03-08T07:20:28.773Z,100.00
2023-03-08T07:21:33.582Z,100.00
2023-03-08T07:22:38.433Z,100.00
2023-03-08T07:23:43.089Z,100.00
2023-03-08T07:24:50.356Z,100.00
2023-03-08T07:25:52.388Z,100.00
2023-03-08T07:26:57.030Z,100.00
2023-03-08T07:27:59.360Z,100.00
2023-03-08T07:29:03.990Z,100.00
2023-03-08T07:30:11.414Z,100.00
2023-03-08T07:31:13.650Z,100.00
2023-03-08T07:32:18.508Z,100.00
2023-03-08T07:33:21.442Z,100.00
2023-03-08T07:34:26.027Z,100.00
2023-03-08T07:35:28.123Z,100.00
2023-03-08T07:36:32.880Z,100.00
2023-03-08T07:37:37.928Z,100.00
2023-03-08T07:38:42.656Z,100.00
2023-03-08T07:39:44.780Z,100.00
2023-03-08T07:40:56.365Z,100.00
2023-03-08T07:42:01.019Z,100.00
2023-03-08T07:43:06.458Z,100.00
2023-03-08T07:44:11.294Z,100.00
2023-03-08T07:45:14.413Z,100.00
2023-03-08T07:46:19.059Z,100.00
2023-03-08T07:47:21.953Z,100.00
2023-03-08T07:48:26.610Z,100.00
2023-03-08T07:49:28.950Z,100.00
2023-03-08T07:50:33.729Z,100.00
2023-03-08T07:51:38.479Z,100.00
2023-03-08T07:52:43.118Z,100.00
2023-03-08T07:53:47.904Z,100.00
2023-03-08T07:54:50.032Z,100.00
2023-03-08T07:55:54.737Z,100.00
2023-03-08T07:56:59.494Z,100.00
2023-03-08T07:58:01.528Z,100.00
2023-03-08T07:59:06.242Z,100.00
2023-03-08T08:00:09.829Z,100.00
2023-03-08T08:01:15.916Z,100.00
2023-03-08T08:02:18.128Z,100.00
2023-03-08T08:03:22.840Z,100.00
2023-03-08T08:04:24.902Z,100.00
2023-03-08T08:05:29.734Z,100.00
2023-03-08T08:06:31.877Z,100.00
2023-03-08T08:07:36.612Z,100.00
2023-03-08T08:08:43.847Z,100.00
2023-03-08T08:09:45.951Z,100.00
2023-03-08T08:10:50.601Z,100.00
2023-03-08T08:11:52.592Z,100.00
2023-03-08T08:12:57.206Z,100.00
2023-03-08T08:13:59.300Z,100.00
2023-03-08T08:15:04.091Z,100.00
2023-03-08T08:16:10.021Z,100.00
2023-03-08T08:17:12.085Z,100.00
2023-03-08T08:18:17.094Z,100.00
2023-03-08T08:19:21.675Z,100.00
2023-03-08T08:20:26.959Z,100.00
2023-03-08T08:21:31.584Z,100.00
2023-03-08T08:22:35.667Z,100.00
2023-03-08T08:23:43.588Z,100.00
2023-03-08T08:24:48.403Z,100.00
2023-03-08T08:27:45.114Z,100.00
2023-03-08T08:28:52.636Z,100.00
2023-03-08T08:29:57.266Z,100.00
2023-03-08T08:31:00.732Z,100.00
2023-03-08T08:32:06.364Z,100.00
2023-03-08T08:33:10.981Z,100.00
2023-03-08T08:34:15.622Z,100.00
2023-03-08T08:35:20.598Z,100.00
2023-03-08T08:36:23.114Z,100.00
2023-03-08T08:37:27.845Z,100.00
2023-03-08T08:38:32.554Z,100.00
2023-03-08T08:39:40.505Z,100.00
2023-03-08T08:40:42.576Z,100.00
2023-03-08T08:41:47.393Z,100.00
2023-03-08T08:42:49.653Z,100.00
2023-03-08T08:43:56.785Z,100.00
2023-03-08T08:45:01.438Z,100.00
2023-03-08T08:46:04.980Z,100.00
2023-03-08T08:47:09.657Z,100.00
2023-03-08T08:48:11.831Z,100.00
2023-03-08T08:49:16.449Z,100.00
2023-03-08T08:50:21.525Z,100.00
2023-03-08T08:51:26.195Z,100.00
2023-03-08T08:52:28.232Z,100.00
2023-03-08T08:53:32.958Z,100.00
2023-03-08T08:54:41.105Z,100.00
2023-03-08T08:55:45.207Z,100.00
2023-03-08T08:56:50.393Z,100.00
2023-03-08T08:57:52.481Z,100.00
2023-03-08T08:58:57.639Z,100.00
2023-03-08T09:00:02.279Z,100.00
2023-03-08T09:01:04.838Z,100.00
2023-03-08T09:02:10.069Z,100.00
2023-03-08T09:03:12.339Z,100.00
2023-03-08T09:04:17.483Z,100.00
2023-03-08T09:05:20.491Z,100.00
2023-03-08T09:06:26.935Z,100.00
2023-03-08T09:07:31.648Z,100.00
2023-03-08T09:08:33.777Z,100.00
2023-03-08T09:09:42.272Z,100.00
2023-03-08T09:10:46.939Z,100.00
2023-03-08T09:11:55.569Z,100.00
2023-03-08T09:12:59.267Z,100.00
2023-03-08T09:14:05.541Z,100.00
2023-03-08T09:15:12.260Z,100.00
2023-03-08T09:16:21.803Z,100.00
2023-03-08T09:17:26.529Z,100.00
2023-03-08T09:18:28.636Z,100.00
2023-03-08T09:19:33.312Z,100.00
2023-03-08T09:20:35.355Z,100.00
2023-03-08T09:21:40.056Z,100.00
2023-03-08T09:22:42.211Z,100.00
2023-03-08T09:23:47.439Z,100.00
2023-03-08T09:24:55.494Z,100.00
2023-03-08T09:25:59.478Z,100.00
2023-03-08T09:27:07.811Z,100.00
2023-03-08T09:28:11.303Z,100.00
2023-03-08T09:29:16.281Z,100.00
2023-03-08T09:30:18.995Z,100.00
2023-03-08T09:31:24.056Z,100.00
2023-03-08T09:32:29.519Z,100.00
2023-03-08T09:33:31.567Z,100.00
2023-03-08T09:34:36.280Z,100.00
2023-03-08T09:35:38.381Z,100.00
2023-03-08T09:36:43.441Z,100.00
2023-03-08T09:37:45.426Z,100.00
2023-03-08T09:38:50.597Z,100.00
2023-03-08T09:39:55.206Z,100.00
2023-03-08T09:41:13.430Z,100.00
2023-03-08T09:42:23.726Z,100.00
2023-03-08T09:43:40.549Z,100.00
2023-03-08T09:44:57.429Z,100.00
2023-03-08T09:46:02.088Z,100.00
2023-03-08T09:48:35.498Z,100.00
2023-03-08T09:49:39.195Z,100.00
2023-03-08T09:50:48.251Z,100.00
2023-03-08T09:52:00.936Z,100.00
2023-03-08T09:53:10.451Z,100.00
2023-03-08T09:54:17.476Z,100.00
2023-03-08T09:55:30.608Z,100.00
2023-03-08T09:56:41.267Z,100.00
2023-03-08T09:57:56.304Z,100.00
2023-03-08T09:59:02.182Z,100.00
2023-03-08T10:00:12.131Z,100.00
2023-03-08T10:01:27.404Z,100.00
2023-03-08T10:02:39.077Z,100.00
2023-03-08T10:03:52.823Z,100.00
2023-03-08T10:05:13.214Z,100.00
2023-03-08T10:06:24.485Z,100.00
2023-03-08T10:07:38.550Z,100.00
2023-03-08T10:08:52.606Z,100.00
2023-03-08T10:10:09.804Z,100.00
2023-03-08T10:11:24.036Z,100.00
2023-03-08T10:12:35.723Z,100.00
2023-03-08T10:13:42.977Z,100.00
2023-03-08T10:14:49.402Z,100.00
2023-03-08T10:15:57.723Z,100.00
2023-03-08T10:17:06.132Z,100.00
2023-03-08T10:18:16.853Z,100.00
2023-03-08T10:19:26.550Z,100.00
2023-03-08T10:20:34.418Z,100.00
2023-03-08T10:21:41.989Z,100.00
2023-03-08T10:22:58.870Z,100.00
2023-03-08T10:24:05.541Z,100.00
2023-03-08T10:25:22.395Z,100.00
2023-03-08T10:26:30.661Z,100.00
2023-03-08T10:27:37.524Z,100.00
2023-03-08T10:28:42.513Z,100.00
2023-03-08T10:29:52.353Z,100.00
2023-03-08T10:30:59.926Z,100.00
2023-03-08T10:32:02.343Z,100.00
2023-03-08T10:33:14.668Z,100.00
2023-03-08T10:34:20.947Z,100.00
2023-03-08T10:35:36.577Z,100.00
2023-03-08T10:36:51.413Z,100.00
2023-03-08T10:37:56.017Z,100.00
2023-03-08T10:39:05.120Z,100.00
2023-03-08T10:40:13.926Z,100.00
2023-03-08T10:41:17.366Z,100.00
2023-03-08T10:42:27.552Z,100.00
2023-03-08T10:43:32.139Z,100.00
2023-03-08T10:44:41.250Z,100.00
2023-03-08T10:45:43.426Z,100.00
2023-03-08T10:46:53.154Z,100.00
2023-03-08T10:48:00.724Z,100.00
2023-03-08T10:49:10.514Z,100.00
2023-03-08T10:50:19.833Z,100.00
2023-03-08T10:51:23.931Z,100.00
2023-03-08T10:52:30.791Z,100.00
2023-03-08T10:53:33.759Z,100.00
2023-03-08T10:54:38.512Z,100.00
2023-03-08T10:55:48.764Z,100.00
2023-03-08T10:56:59.756Z,100.00
2023-03-08T10:58:07.058Z,100.00
2023-03-08T10:59:27.713Z,100.00
2023-03-08T11:00:37.580Z,100.00
2023-03-08T11:01:49.388Z,100.00
2023-03-08T11:03:05.560Z,100.00
2023-03-08T11:04:18.258Z,100.00
2023-03-08T11:05:22.813Z,100.00
2023-03-08T11:06:28.717Z,100.00
2023-03-08T11:07:32.966Z,100.00
2023-03-08T11:08:39.817Z,100.00
2023-03-08T11:09:41.888Z,100.00
2023-03-08T11:10:46.601Z,100.00
2023-03-08T11:11:51.383Z,100.00
2023-03-08T11:13:15.680Z,100.00
2023-03-08T11:14:20.631Z,100.00
2023-03-08T11:15:22.644Z,100.00
2023-03-08T11:16:45.989Z,100.00
2023-03-08T11:17:58.269Z,100.00
2023-03-08T11:19:11.286Z,100.00
2023-03-08T11:20:21.298Z,100.00
2023-03-08T11:21:30.111Z,100.00
2023-03-08T11:22:52.923Z,100.00
2023-03-08T11:24:09.699Z,100.00
2023-03-08T11:25:32.611Z,100.00
2023-03-08T11:26:47.309Z,100.00
2023-03-08T11:28:15.821Z,100.00
2023-03-08T11:29:30.761Z,100.00
2023-03-08T11:30:52.625Z,100.00
2023-03-08T11:32:03.740Z,100.00
2023-03-08T11:33:32.749Z,100.00
2023-03-08T11:34:56.256Z,100.00
2023-03-08T11:36:05.659Z,100.00
2023-03-08T11:37:19.145Z,100.00
2023-03-08T11:38:27.819Z,100.00
2023-03-08T11:39:33.538Z,100.00
2023-03-08T11:41:00.936Z,100.00
2023-03-08T11:42:12.483Z,100.00
2023-03-08T11:43:25.597Z,100.00
2023-03-08T11:44:44.287Z,100.00
2023-03-08T11:46:01.335Z,100.00
2023-03-08T11:47:40.596Z,100.00
2023-03-08T11:49:17.348Z,100.00
2023-03-08T11:50:23.617Z,100.00
2023-03-08T11:51:35.471Z,100.00
2023-03-08T11:52:46.336Z,100.00
2023-03-08T11:54:02.063Z,100.00
2023-03-08T11:55:20.698Z,100.00
2023-03-08T11:56:40.625Z,100.00
2023-03-08T11:57:47.140Z,100.00
2023-03-08T12:00:49.689Z,100.00
2023-03-08T12:01:57.118Z,100.00
2023-03-08T12:03:06.266Z,100.00
2023-03-08T12:04:13.897Z,100.00
2023-03-08T12:05:30.041Z,100.00
2023-03-08T12:06:43.987Z,100.00
2023-03-08T12:07:56.042Z,100.00
2023-03-08T12:09:04.922Z,100.00
2023-03-08T12:10:21.903Z,100.00
2023-03-08T12:11:28.193Z,100.00
2023-03-08T12:12:37.971Z,100.00
2023-03-08T12:13:44.460Z,100.00
2023-03-08T12:14:59.591Z,100.00
2023-03-08T12:16:12.334Z,100.00
2023-03-08T12:17:23.335Z,100.00
2023-03-08T12:18:49.530Z,100.00
2023-03-08T12:19:54.409Z,100.00
2023-03-08T12:21:08.735Z,100.00
2023-03-08T12:22:39.425Z,100.00
2023-03-08T12:23:51.993Z,100.00
2023-03-08T12:25:29.758Z,100.00
2023-03-08T12:26:50.700Z,100.00
2023-03-08T12:28:07.277Z,100.00
2023-03-08T12:29:23.581Z,100.00
2023-03-08T12:30:52.243Z,100.00
2023-03-08T12:32:01.742Z,100.00
2023-03-08T12:33:27.962Z,100.00
2023-03-08T12:34:41.238Z,100.00
2023-03-08T12:35:57.237Z,100.00
2023-03-08T12:37:04.227Z,100.00
2023-03-08T12:40:00.933Z,100.00
2023-03-08T12:41:04.390Z,100.00
2023-03-08T12:42:22.018Z,100.00
2023-03-08T12:43:35.573Z,100.00
2023-03-08T12:44:41.643Z,100.00
2023-03-08T12:45:53.260Z,100.00
2023-03-08T12:47:03.415Z,100.00
2023-03-08T12:48:20.932Z,100.00
2023-03-08T12:49:36.345Z,100.00
2023-03-08T12:50:44.719Z,100.00
2023-03-08T12:52:00.403Z,100.00
2023-03-08T12:53:02.716Z,100.00
2023-03-08T12:54:08.335Z,100.00
2023-03-08T12:55:27.261Z,100.00
2023-03-08T12:56:35.662Z,100.00
2023-03-08T12:57:48.288Z,100.00
2023-03-08T12:58:54.006Z,100.00
2023-03-08T13:00:02.166Z,100.00
2023-03-08T13:01:41.350Z,100.00
2023-03-08T13:03:07.849Z,100.00
2023-03-08T13:04:41.051Z,100.00
2023-03-08T13:05:50.429Z,100.00
2023-03-08T13:07:25.771Z,100.00
2023-03-08T13:08:37.851Z,100.00
2023-03-08T13:09:53.209Z,100.00
2023-03-08T13:11:03.984Z,100.00
2023-03-08T13:12:26.776Z,100.00
2023-03-08T13:13:42.252Z,100.00
2023-03-08T13:14:49.362Z,100.00
2023-03-08T13:15:51.583Z,100.00
2023-03-08T13:17:01.959Z,100.00
2023-03-08T13:18:17.479Z,100.00
2023-03-08T13:19:29.169Z,100.00
2023-03-08T13:20:52.876Z,100.00
2023-03-08T13:22:15.874Z,100.00
2023-03-08T13:23:31.208Z,100.00
2023-03-08T13:24:45.559Z,100.00
2023-03-08T13:26:10.166Z,100.00
2023-03-08T13:28:50.279Z,100.00
2023-03-08T13:29:52.878Z,100.00
2023-03-08T13:31:13.074Z,100.00
2023-03-08T13:32:38.899Z,100.00
2023-03-08T13:33:56.294Z,100.00
2023-03-08T13:35:16.046Z,100.00
2023-03-08T13:36:20.977Z,100.00
2023-03-08T13:37:42.771Z,100.00
2023-03-08T13:38:58.494Z,100.00
2023-03-08T13:40:07.282Z,100.00
2023-03-08T13:41:09.367Z,100.00
2023-03-08T13:42:15.116Z,100.00
2023-03-08T13:43:20.135Z,100.00
2023-03-08T13:44:45.865Z,100.00
2023-03-08T13:46:11.631Z,100.00
2023-03-08T13:47:25.739Z,100.00
2023-03-08T13:48:33.260Z,100.00
2023-03-08T13:49:41.444Z,100.00
2023-03-08T13:50:53.401Z,100.00
2023-03-08T13:51:58.447Z,100.00
2023-03-08T13:53:08.198Z,100.00
2023-03-08T13:54:17.578Z,100.00
2023-03-08T13:55:28.338Z,100.00
2023-03-08T13:56:33.412Z,100.00
2023-03-08T13:57:38.234Z,100.00
2023-03-08T13:58:50.056Z,100.00
2023-03-08T13:59:57.235Z,100.00
2023-03-08T14:01:02.315Z,100.00
2023-03-08T14:02:24.776Z,100.00
2023-03-08T14:03:29.437Z,100.00
2023-03-08T14:04:34.586Z,100.00
2023-03-08T14:05:42.941Z,100.00
2023-03-08T14:06:54.726Z,100.00
2023-03-08T14:08:04.910Z,100.00
2023-03-08T14:09:07.579Z,100.00
2023-03-08T14:10:16.858Z,100.00
2023-03-08T14:11:25.549Z,100.00
2023-03-08T14:12:30.362Z,100.00
2023-03-08T14:13:37.735Z,100.00
2023-03-08T14:14:46.555Z,100.00
2023-03-08T14:15:50.168Z,100.00